Main page
METAR-TAF:

METAR-TAF

Airports :

Rabat, Morocco

Rabat–Salé Airport

latitude: 34-03N, longitude: 006-46W, elevation: 84 m

Current weather observation

The report was made 32 minutes ago, at 11:30 UTC
Wind 7 kt from the North, varying between Northwest and North/Northeast
Temperature 25°C
Humidity 65%
Pressure 1014 hPa
Visibility: 6000 m
Scattered clouds at a height of 2000 ft
Scattered clouds at a height of 6000 ft

METAR: GMME 261130Z 35007KT 320V020 6000 SCT020 SCT060 25/18 Q1014 NOSIG

Time: 12:02 (12:02 UTC)


TAF: missing

Weather observations and forecasts of more than 4000 airports (METAR and TAF reports).

The available stations are represented by yellow and red dots on the map.

Hover mouse over dot to see the name of the station.

Then click to see weather observations and forecasts.

To change the map : click on the green buttons with a black cross to zoom in, on the green button with a dash to zoom out, or on the green arrows for adjacent maps.


METAR-TAF: